createdAt,value
2023-04-21T00:00:18.215Z,2.03
2023-04-21T00:03:23.743Z,2.50
2023-04-21T00:06:28.479Z,2.13
2023-04-21T00:09:32.881Z,1.85
2023-04-21T00:12:36.204Z,2.15
2023-04-21T00:15:40.063Z,1.80
2023-04-21T00:18:43.306Z,2.13
2023-04-21T00:21:47.011Z,1.98
2023-04-21T00:24:51.535Z,2.20
2023-04-21T00:27:54.598Z,2.00
2023-04-21T00:30:57.760Z,1.70
2023-04-21T00:34:00.845Z,2.22
2023-04-21T00:37:04.206Z,2.50
2023-04-21T00:40:10.880Z,1.90
2023-04-21T00:43:13.914Z,1.85
2023-04-21T00:46:17.062Z,1.95
2023-04-21T00:49:20.208Z,1.80
2023-04-21T00:52:23.549Z,1.67
2023-04-21T00:55:28.999Z,1.70
2023-04-21T00:58:33.038Z,1.73
2023-04-21T01:01:36.431Z,1.80
2023-04-21T01:04:40.312Z,2.00
2023-04-21T01:07:43.717Z,1.98
2023-04-21T01:10:47.958Z,1.80
2023-04-21T01:16:57.656Z,1.60
2023-04-21T01:20:03.723Z,1.40
2023-04-21T01:23:08.227Z,1.50
2023-04-21T01:26:11.581Z,1.73
2023-04-21T01:29:14.698Z,1.80
2023-04-21T01:32:20.749Z,1.27
2023-04-21T01:35:24.052Z,1.65
2023-04-21T01:38:28.766Z,1.55
2023-04-21T01:41:31.965Z,1.90
2023-04-21T01:44:35.362Z,1.38
2023-04-21T01:47:38.859Z,1.50
2023-04-21T01:50:42.073Z,1.40
2023-04-21T01:53:46.572Z,1.30
2023-04-21T01:56:49.662Z,1.48
2023-04-21T01:59:52.830Z,1.60
2023-04-21T02:02:55.945Z,1.50
2023-04-21T02:05:59.064Z,1.50
2023-04-21T02:09:03.591Z,1.98
2023-04-21T02:12:07.136Z,1.45
2023-04-21T02:15:11.011Z,1.25
2023-04-21T02:18:14.961Z,1.40
2023-04-21T02:21:18.236Z,1.20
2023-04-21T02:24:23.138Z,1.90
2023-04-21T02:27:26.335Z,1.25
2023-04-21T02:30:29.581Z,1.10
2023-04-21T02:33:32.812Z,0.95
2023-04-21T02:36:36.064Z,1.23
2023-04-21T02:39:40.492Z,1.42
2023-04-21T02:42:43.518Z,1.38
2023-04-21T02:45:46.979Z,1.42
2023-04-21T02:48:50.281Z,1.57
2023-04-21T02:51:59.555Z,1.20
2023-04-21T02:55:04.577Z,1.13
2023-04-21T02:58:07.866Z,1.40
2023-04-21T03:01:11.028Z,1.58
2023-04-21T03:04:14.219Z,1.13
2023-04-21T03:07:17.864Z,1.10
2023-04-21T03:10:22.321Z,1.08
2023-04-21T03:13:25.811Z,1.50
2023-04-21T03:16:29.439Z,1.70
2023-04-21T03:19:32.999Z,1.05
2023-04-21T03:22:36.245Z,1.23
2023-04-21T03:25:40.880Z,1.20
2023-04-21T03:28:43.897Z,0.98
2023-04-21T03:31:47.022Z,1.30
2023-04-21T03:34:51.331Z,1.10
2023-04-21T03:40:58.818Z,1.70
2023-04-21T03:44:02.151Z,1.20
